createdAt,value
2019-02-02T00:03:47.778Z,33.95
2019-02-02T00:08:49.674Z,35.60
2019-02-02T00:13:51.153Z,33.83
2019-02-02T00:18:52.622Z,32.58
2019-02-02T00:23:57.127Z,32.78
2019-02-02T00:28:58.429Z,33.95
2019-02-02T00:33:59.826Z,29.95
2019-02-02T00:39:01.101Z,30.92
2019-02-02T00:44:03.774Z,32.35
2019-02-02T00:49:05.838Z,31.42
2019-02-02T00:54:07.138Z,31.80
2019-02-02T00:59:08.633Z,33.05
2019-02-02T01:04:10.041Z,32.90
2019-02-02T01:09:13.415Z,34.33
2019-02-02T01:14:14.858Z,34.65
2019-02-02T01:19:16.155Z,35.43
2019-02-02T01:24:17.513Z,34.50
2019-02-02T01:29:18.888Z,36.10
2019-02-02T01:34:20.340Z,36.10
2019-02-02T01:39:21.704Z,34.73
2019-02-02T01:44:23.066Z,36.40
2019-02-02T01:49:24.335Z,34.15
2019-02-02T01:54:25.842Z,36.68
2019-02-02T01:59:27.349Z,35.95
2019-02-02T02:04:28.806Z,39.30
2019-02-02T02:09:30.193Z,37.40
2019-02-02T02:14:31.676Z,37.98
2019-02-02T02:19:33.241Z,34.48
2019-02-02T02:24:34.745Z,36.23
2019-02-02T02:29:36.445Z,34.38
2019-02-02T02:34:37.837Z,39.88
2019-02-02T02:39:39.175Z,41.88
2019-02-02T02:44:40.652Z,37.63
2019-02-02T02:49:41.986Z,36.63
2019-02-02T02:54:43.324Z,35.63
2019-02-02T02:59:44.640Z,39.20
2019-02-02T03:04:46.796Z,41.30
2019-02-02T03:09:48.100Z,39.67
2019-02-02T03:14:49.536Z,40.10
2019-02-02T03:19:51.039Z,39.63
2019-02-02T03:24:52.633Z,38.13
2019-02-02T03:29:53.937Z,40.75
2019-02-02T03:34:55.450Z,38.98
2019-02-02T03:39:57.076Z,39.03
2019-02-02T03:44:58.534Z,39.55
2019-02-02T03:50:00.297Z,38.90
2019-02-02T03:55:01.684Z,40.65
2019-02-02T04:00:13.801Z,40.28
2019-02-02T04:05:22.839Z,40.23
2019-02-02T04:10:24.558Z,36.70
2019-02-02T04:15:25.917Z,40.40
2019-02-02T04:20:27.266Z,42.08
2019-02-02T04:25:28.552Z,43.35
2019-02-02T04:30:30.756Z,40.95
2019-02-02T04:35:32.099Z,42.00
2019-02-02T04:40:33.388Z,42.65
2019-02-02T04:45:34.697Z,39.73
2019-02-02T04:50:36.039Z,44.93
2019-02-02T04:55:37.659Z,41.25
2019-02-02T05:00:38.975Z,44.80
2019-02-02T05:05:40.307Z,43.15
2019-02-02T05:10:41.644Z,42.65
2019-02-02T05:15:42.961Z,43.02
2019-02-02T05:20:44.299Z,44.00
2019-02-02T05:25:45.608Z,42.53
2019-02-02T05:30:46.895Z,44.48
2019-02-02T05:35:48.217Z,39.83
2019-02-02T05:40:49.564Z,43.87
2019-02-02T05:45:52.367Z,43.90
2019-02-02T05:50:53.651Z,42.75
2019-02-02T05:55:54.999Z,45.95
2019-02-02T06:00:56.460Z,45.35
2019-02-02T06:05:57.773Z,49.48
2019-02-02T06:10:59.238Z,49.23
2019-02-02T06:16:00.658Z,48.30
2019-02-02T06:21:01.994Z,54.67
2019-02-02T06:26:03.633Z,51.98
2019-02-02T06:31:05.462Z,54.55
2019-02-02T06:36:08.076Z,50.17
2019-02-02T06:41:09.400Z,54.98
2019-02-02T06:46:10.819Z,51.02
2019-02-02T06:51:12.302Z,53.23
2019-02-02T06:56:13.638Z,56.50
2019-02-02T07:01:16.718Z,57.48
2019-02-02T07:06:18.001Z,59.65
2019-02-02T07:11:19.485Z,59.88
2019-02-02T07:16:21.230Z,55.75
2019-02-02T07:21:22.587Z,56.70
2019-02-02T07:26:23.912Z,58.40
2019-02-02T07:31:25.270Z,56.90
2019-02-02T07:36:26.660Z,57.48
2019-02-02T07:41:28.036Z,57.98
2019-02-02T07:46:29.551Z,55.40
2019-02-02T07:51:30.868Z,61.30
2019-02-02T07:56:32.243Z,62.83
2019-02-02T08:01:33.518Z,63.58
2019-02-02T08:06:36.042Z,64.15
2019-02-02T08:11:37.501Z,64.50
2019-02-02T08:16:38.788Z,58.75
2019-02-02T08:21:40.167Z,67.22
2019-02-02T08:26:41.454Z,60.60
2019-02-02T08:31:42.815Z,62.73
2019-02-02T08:36:44.260Z,69.07
2019-02-02T08:41:45.756Z,64.67
2019-02-02T08:46:48.397Z,61.08
2019-02-02T08:51:50.111Z,64.27
2019-02-02T08:56:51.762Z,66.90
2019-02-02T09:01:53.090Z,66.75
2019-02-02T09:06:54.601Z,59.00
2019-02-02T09:11:56.099Z,67.62
2019-02-02T09:16:57.410Z,58.75
2019-02-02T09:21:59.135Z,57.83
2019-02-02T09:27:00.528Z,56.92
2019-02-02T09:32:02.083Z,63.33
2019-02-02T09:37:03.405Z,67.27
2019-02-02T09:42:04.909Z,54.13
2019-02-02T09:47:07.469Z,64.95
2019-02-02T09:52:09.432Z,68.17
2019-02-02T09:57:11.859Z,64.65
2019-02-02T10:02:13.343Z,57.58
2019-02-02T10:07:14.688Z,62.75
2019-02-02T10:12:16.181Z,72.67
2019-02-02T10:17:17.499Z,58.25
2019-02-02T10:22:18.855Z,58.80
2019-02-02T10:27:20.273Z,67.65
2019-02-02T10:32:21.702Z,63.30
2019-02-02T10:37:23.012Z,61.28
2019-02-02T10:42:24.765Z,63.38
2019-02-02T10:47:26.145Z,64.92
2019-02-02T10:52:27.641Z,61.23
2019-02-02T10:57:29.007Z,59.42
2019-02-02T11:02:30.310Z,74.20
2019-02-02T11:07:31.870Z,67.17
2019-02-02T11:12:33.236Z,54.70
2019-02-02T11:17:34.815Z,55.75
2019-02-02T11:22:36.169Z,53.95
2019-02-02T11:27:39.448Z,67.50
2019-02-02T11:32:40.952Z,54.73
2019-02-02T11:38:01.183Z,59.55
2019-02-02T11:43:03.170Z,53.95
2019-02-02T11:48:04.918Z,52.43
2019-02-02T11:53:06.347Z,53.38
2019-02-02T11:58:07.761Z,48.17
2019-02-02T12:03:09.243Z,64.45
2019-02-02T12:08:12.497Z,48.87
2019-02-02T12:13:13.873Z,58.85
2019-02-02T12:18:15.197Z,60.10
2019-02-02T12:23:16.568Z,50.03
2019-02-02T12:28:19.830Z,45.60
2019-02-02T12:33:21.387Z,48.98
2019-02-02T12:38:22.765Z,50.80
2019-02-02T12:43:24.305Z,43.78
2019-02-02T12:48:25.745Z,52.65
2019-02-02T12:53:27.149Z,47.95
2019-02-02T12:58:28.592Z,43.48
2019-02-02T13:03:30.043Z,42.13
2019-02-02T13:08:31.689Z,50.50
2019-02-02T13:13:33.209Z,46.68
2019-02-02T13:18:34.723Z,43.95
2019-02-02T13:23:36.257Z,46.45
2019-02-02T13:28:37.760Z,50.00
2019-02-02T13:33:39.190Z,37.95
2019-02-02T13:38:40.723Z,45.48
2019-02-02T13:43:42.189Z,39.83
2019-02-02T13:48:43.703Z,44.33
2019-02-02T13:53:45.178Z,49.95
2019-02-02T13:58:46.624Z,40.80
2019-02-02T14:03:48.050Z,41.00
2019-02-02T14:08:49.611Z,40.73
2019-02-02T14:13:51.105Z,43.65
2019-02-02T14:18:52.837Z,52.15
2019-02-02T14:23:54.267Z,45.28
2019-02-02T14:28:55.727Z,41.77
2019-02-02T14:33:57.560Z,38.23
2019-02-02T14:38:59.325Z,39.80
2019-02-02T14:44:00.781Z,43.83
2019-02-02T14:49:02.471Z,42.03
2019-02-02T14:54:12.741Z,41.57
2019-02-02T14:59:14.152Z,38.13
2019-02-02T15:04:15.810Z,42.33
2019-02-02T15:09:17.479Z,41.80
2019-02-02T15:14:18.961Z,40.58
2019-02-02T15:19:20.660Z,44.90
2019-02-02T15:24:40.453Z,43.35
2019-02-02T15:29:41.773Z,39.65
2019-02-02T15:34:43.215Z,38.48
2019-02-02T15:39:44.584Z,44.70
2019-02-02T15:44:45.958Z,43.48
2019-02-02T15:49:47.648Z,48.45
2019-02-02T15:54:49.055Z,49.90
2019-02-02T15:59:51.592Z,48.75
2019-02-02T16:04:53.028Z,46.00
2019-02-02T16:09:55.663Z,51.28
2019-02-02T16:14:58.451Z,50.67
2019-02-02T16:20:04.040Z,51.63
2019-02-02T16:25:10.021Z,50.48
2019-02-02T16:30:18.991Z,50.67
2019-02-02T16:35:21.008Z,57.43
2019-02-02T16:40:28.742Z,46.23
2019-02-02T16:45:32.518Z,49.03
2019-02-02T16:50:33.882Z,47.27
2019-02-02T16:55:35.312Z,50.40
2019-02-02T17:00:36.851Z,48.38
2019-02-02T17:05:38.370Z,47.23
2019-02-02T17:10:39.880Z,44.33
2019-02-02T17:15:41.326Z,50.55
2019-02-02T17:20:43.079Z,49.90
2019-02-02T17:25:45.725Z,47.55
2019-02-02T17:30:47.157Z,46.55
2019-02-02T17:35:48.899Z,38.55
2019-02-02T17:40:50.353Z,42.98
2019-02-02T17:45:51.999Z,44.90
2019-02-02T17:50:53.364Z,47.27
2019-02-02T17:55:54.814Z,40.20
2019-02-02T18:00:56.873Z,43.87
2019-02-02T18:05:58.450Z,44.20
2019-02-02T18:10:59.916Z,45.20
2019-02-02T18:16:04.154Z,46.77
2019-02-02T18:21:05.436Z,47.10
2019-02-02T18:26:06.797Z,46.18
2019-02-02T18:31:08.122Z,45.90
2019-02-02T18:36:09.536Z,49.30
2019-02-02T18:41:10.852Z,46.37
2019-02-02T18:46:12.317Z,45.08
2019-02-02T18:51:13.594Z,43.20
2019-02-02T18:56:15.310Z,43.95
2019-02-02T19:01:16.713Z,49.73
2019-02-02T19:06:18.055Z,47.38
2019-02-02T19:11:19.463Z,53.85
2019-02-02T19:16:20.895Z,57.00
2019-02-02T19:21:22.337Z,57.73
2019-02-02T19:26:23.697Z,60.48
2019-02-02T19:31:25.184Z,54.65
2019-02-02T19:36:28.482Z,57.10
2019-02-02T19:41:30.016Z,54.03
2019-02-02T19:46:31.410Z,58.42
2019-02-02T19:51:33.619Z,67.60
2019-02-02T19:56:35.281Z,52.25
2019-02-02T20:01:36.612Z,60.30
2019-02-02T20:06:39.035Z,52.62
2019-02-02T20:11:40.367Z,57.58
2019-02-02T20:17:00.344Z,58.15
2019-02-02T20:22:01.920Z,67.00
2019-02-02T20:27:03.273Z,56.45
2019-02-02T20:32:06.289Z,59.30
2019-02-02T20:37:07.612Z,63.15
2019-02-02T20:42:09.120Z,64.15
2019-02-02T20:47:10.667Z,63.50
2019-02-02T20:52:12.319Z,65.75
2019-02-02T20:57:13.787Z,62.55
2019-02-02T21:02:15.292Z,65.17
2019-02-02T21:07:16.851Z,65.95
2019-02-02T21:12:18.567Z,64.62
2019-02-02T21:17:20.048Z,68.17
2019-02-02T21:22:22.769Z,66.33
2019-02-02T21:27:24.074Z,67.60
2019-02-02T21:32:28.290Z,72.85
2019-02-02T21:37:29.841Z,67.85
2019-02-02T21:42:34.327Z,68.22
2019-02-02T21:47:35.710Z,66.53
2019-02-02T21:52:37.157Z,68.33
2019-02-02T21:57:38.581Z,70.90
2019-02-02T22:02:40.166Z,68.00
2019-02-02T22:07:41.879Z,76.70
2019-02-02T22:12:43.250Z,73.25
2019-02-02T22:17:45.310Z,70.72
2019-02-02T22:22:46.753Z,74.45
2019-02-02T22:27:48.942Z,77.65
2019-02-02T22:32:50.667Z,76.17
2019-02-02T22:37:51.984Z,67.82
2019-02-02T22:42:53.374Z,73.78
2019-02-02T22:47:56.730Z,82.02
2019-02-02T22:52:58.531Z,75.62
2019-02-02T22:57:59.967Z,77.47
2019-02-02T23:03:01.467Z,74.27
2019-02-02T23:08:08.563Z,77.87
2019-02-02T23:13:24.555Z,80.67
2019-02-02T23:18:26.000Z,78.00
2019-02-02T23:23:27.465Z,80.92
2019-02-02T23:28:28.885Z,80.60
2019-02-02T23:33:30.519Z,84.85
2019-02-02T23:38:33.164Z,84.22
2019-02-02T23:43:36.259Z,83.37
2019-02-02T23:48:37.896Z,74.82
2019-02-02T23:53:39.451Z,77.67
2019-02-02T23:58:42.586Z,79.00
